Flight Track Log - Related Links

Times and Time Zones

All times are in EDT time to prevent confusion due to time zone crossing. See the CPT7773 flight status page for this flight to view local times or setup timezone preferences in your user account.

Time Position Orientation Groundspeed Altitude Reporting Facility
EDT Latitude Longitude Course Direction KTS MPH feet Rate Location/Type
Fri 08:08:00 PM 44.4009 -108.7619 120° Southeast  Level FlightAware Approximate
Fri 08:09:00 PM 44.3791 -108.7094 120° Southeast  Level FlightAware Approximate
Fri 08:10:00 PM 44.3555 -108.6528 120° Southeast  Level FlightAware Approximate
Fri 08:11:00 PM 44.3320 -108.5960 115° Southeast  Level FlightAware Approximate
Fri 08:12:00 PM 44.3111 -108.5374 122° Southeast  Level FlightAware Approximate
Fri 08:13:00 PM 44.2864 -108.4818 122° Southeast  Level FlightAware Approximate
Fri 08:14:00 PM 44.2616 -108.4261 122° Southeast  Level FlightAware Approximate
Fri 08:15:00 PM 44.2331 -108.3745 133° Southeast  Level FlightAware Approximate
Fri 08:16:00 PM 44.2012 -108.3266 133° Southeast  Level FlightAware Approximate
Fri 08:17:00 PM 44.1692 -108.2787 133° Southeast  Level FlightAware Approximate
Fri 08:18:00 PM 44.1373 -108.2308 133° Southeast  Level FlightAware Approximate
Fri 08:19:00 PM 44.1054 -108.1830 133° Southeast  Level FlightAware Approximate
Fri 08:20:00 PM 44.0735 -108.1350 133° Southeast  Level FlightAware Approximate
Fri 08:21:00 PM 44.0416 -108.0871 133° Southeast  Level FlightAware Approximate
Fri 08:22:00 PM 44.0097 -108.0393 133° Southeast  Level FlightAware Approximate
Fri 08:23:00 PM 43.9778 -107.9915 133° Southeast  Level FlightAware Approximate
Fri 08:24:00 PM 43.9470 -107.9427 120° Southeast  Level FlightAware Approximate
Fri 08:25:00 PM 43.9235 -107.8863 120° Southeast  Level FlightAware Approximate
Fri 08:26:00 PM 43.9000 -107.8299 120° Southeast  Level FlightAware Approximate
Fri 08:26:36 PM 43.9808 -107.9764 128° Southeast 164 189 12,000  Level Denver Center
Fri 08:27:00 PM 43.8765 -107.7736 120° Southeast  Level FlightAware Approximate
Fri 08:28:00 PM 43.8499 -107.7202 128° Southeast  Level FlightAware Approximate
Fri 08:28:00 PM 43.9353 -107.9106 134° Southeast  Level Estimated
Fri 08:29:00 PM 43.8211 -107.6689 128° Southeast  Level FlightAware Approximate
Fri 08:30:00 PM 43.7922 -107.6177 128° Southeast  Level FlightAware Approximate
Fri 08:31:00 PM 43.7633 -107.5665 128° Southeast  Level FlightAware Approximate
Fri 08:32:35 PM 43.5475 -107.1417 134° Southeast 157 181 11,900  Level Denver Center
Fri 08:33:37 PM 43.5208 -107.0911 126° Southeast 170 196 12,000 49 Climbing Denver Center
Fri 08:34:38 PM 43.4908 -107.0336 126° Southeast 166 191 12,000  Level Denver Center
Fri 08:35:00 PM 43.7074 -107.5832 134° Southeast  Level Estimated
Fri 08:35:40 PM 43.4653 -106.9822 124° Southeast 168 193 12,000  Level Denver Center
Fri 08:36:00 PM 43.6747 -107.5366 134° Southeast  Level Estimated
Fri 08:36:42 PM 43.4386 -106.9314 126° Southeast 169 194 12,000  Level Denver Center
Fri 08:37:00 PM 43.6421 -107.4900 134° Southeast  Level Estimated
Fri 08:37:44 PM 43.4075 -106.8744 127° Southeast 169 194 12,000  Level Denver Center
Fri 08:38:46 PM 43.3822 -106.8217 123° Southeast 171 197 12,000  Level Denver Center
Fri 08:39:47 PM 43.3500 -106.7617 126° Southeast 173 199 12,000 -98 Level Denver Center
Fri 08:40:49 PM 43.3153 -106.7219 140° Southeast 172 198 11,800 -339 Descending Denver Center
Fri 08:41:51 PM 43.2625 -106.6925 158° South 182 209 11,300 -484 Descending Denver Center
Fri 08:42:53 PM 43.2178 -106.6653 156° South 182 209 10,800 -537 Descending Denver Center
Fri 08:43:54 PM 43.1731 -106.6361 155° Southeast 184 212 10,200 -732 Descending Denver Center
Fri 08:44:56 PM 43.1206 -106.6019 155° Southeast 186 214 9,300 -774 Descending Denver Center
Fri 08:45:58 PM 43.0744 -106.5786 160° South 185 213 8,600 -774 Descending Denver Center
Fri 08:47:00 PM 43.0178 -106.5528 162° South 187 215 7,700 -585 Descending Denver Center
Fri 08:48:01 PM 42.9686 -106.5369 167° South 188 216 7,400 -293 Descending Denver Center
Fri 08:49:03 PM 42.9122 -106.5397 182° South 187 215 7,100 -290 Descending Denver Center
Fri 08:51:00 PM 42.9080 -106.4644 154° Southeast  Level Estimated
Fri 08:58:00 PM 42.9080 -106.4644 154° Southeast  Level Estimated
Fri 08:59:00 PM 42.9080 -106.4644 154° Southeast  Level Estimated

Login

Don't have an account? Register now (free) for customized features, flight alerts, and more!